createdAt,value
2019-03-30T00:00:25.166Z,4.70
2019-03-30T00:02:53.939Z,4.70
2019-03-30T00:05:22.669Z,4.60
2019-03-30T00:07:51.435Z,4.70
2019-03-30T00:10:20.175Z,4.70
2019-03-30T00:12:48.955Z,4.60
2019-03-30T00:15:17.773Z,4.50
2019-03-30T00:17:46.545Z,4.50
2019-03-30T00:20:15.317Z,4.40
2019-03-30T00:22:44.049Z,4.40
2019-03-30T00:25:12.821Z,4.40
2019-03-30T00:27:41.561Z,4.50
2019-03-30T00:30:10.321Z,4.50
2019-03-30T00:32:39.145Z,4.50
2019-03-30T00:35:07.918Z,4.40
2019-03-30T00:37:36.638Z,4.30
2019-03-30T00:40:07.006Z,4.20
2019-03-30T00:42:35.733Z,4.20
2019-03-30T00:45:06.286Z,4.10
2019-03-30T00:47:35.069Z,4.10
2019-03-30T00:50:04.433Z,4.00
2019-03-30T00:52:33.236Z,4.10
2019-03-30T00:55:01.924Z,4.10
2019-03-30T00:57:30.692Z,4.30
2019-03-30T00:59:59.516Z,4.10
2019-03-30T01:02:28.281Z,4.00
2019-03-30T01:04:57.099Z,4.00
2019-03-30T01:07:25.861Z,4.10
2019-03-30T01:09:54.677Z,4.20
2019-03-30T01:12:23.512Z,4.20
2019-03-30T01:14:52.249Z,4.10
2019-03-30T01:17:26.840Z,4.00
2019-03-30T01:20:02.886Z,3.90
2019-03-30T01:22:26.182Z,3.90
2019-03-30T01:24:54.908Z,3.80
2019-03-30T01:27:25.340Z,3.80
2019-03-30T01:29:54.077Z,3.80
2019-03-30T01:32:25.025Z,3.80
2019-03-30T01:34:54.245Z,3.80
2019-03-30T01:37:23.013Z,3.80
2019-03-30T01:39:51.805Z,3.90
2019-03-30T01:42:20.582Z,3.90
2019-03-30T01:44:49.413Z,3.90
2019-03-30T01:47:18.265Z,3.90
2019-03-30T01:49:47.174Z,3.80
2019-03-30T01:52:16.045Z,3.80
2019-03-30T01:54:44.809Z,4.00
2019-03-30T01:57:13.542Z,3.90
2019-03-30T01:59:42.304Z,3.80
2019-03-30T02:02:11.088Z,3.80
2019-03-30T02:04:39.916Z,3.80
2019-03-30T02:07:08.722Z,3.80
2019-03-30T02:09:37.493Z,3.60
2019-03-30T02:12:06.244Z,3.60
2019-03-30T02:14:35.034Z,3.50
2019-03-30T02:17:03.976Z,3.60
2019-03-30T02:19:32.720Z,3.60
2019-03-30T02:22:01.546Z,3.60
2019-03-30T02:24:30.277Z,3.60
2019-03-30T02:26:59.412Z,3.50
2019-03-30T02:29:28.144Z,3.50
2019-03-30T02:31:56.913Z,3.50
2019-03-30T02:34:25.740Z,3.40
2019-03-30T02:36:54.576Z,3.40
2019-03-30T02:39:23.325Z,3.50
2019-03-30T02:41:52.146Z,3.40
2019-03-30T02:44:20.889Z,3.50
2019-03-30T02:46:49.723Z,3.50
2019-03-30T02:49:18.493Z,3.60
2019-03-30T02:51:47.269Z,3.50
2019-03-30T02:54:16.077Z,3.50
2019-03-30T02:56:44.815Z,3.40
2019-03-30T02:59:13.587Z,3.40
2019-03-30T03:01:45.022Z,3.40
2019-03-30T03:04:13.899Z,3.30
2019-03-30T03:06:42.647Z,3.30
2019-03-30T03:09:11.496Z,3.30
2019-03-30T03:11:40.374Z,3.30
2019-03-30T03:14:09.251Z,3.20
2019-03-30T03:16:37.986Z,3.10
2019-03-30T03:19:06.763Z,3.10
2019-03-30T03:21:35.506Z,3.10
2019-03-30T03:24:04.272Z,3.10
2019-03-30T03:26:33.082Z,3.10
2019-03-30T03:29:01.857Z,3.30
2019-03-30T03:31:30.638Z,3.30
2019-03-30T03:33:59.362Z,3.30
2019-03-30T03:36:28.241Z,3.20
2019-03-30T03:38:56.974Z,3.20
2019-03-30T03:41:25.818Z,3.20
2019-03-30T03:43:54.606Z,3.10
2019-03-30T03:46:23.408Z,3.20
2019-03-30T03:48:52.137Z,3.10
2019-03-30T03:51:26.178Z,3.10
2019-03-30T03:53:51.573Z,3.10
2019-03-30T03:56:22.005Z,3.00
2019-03-30T03:58:51.531Z,3.10
2019-03-30T04:01:22.802Z,3.00
2019-03-30T04:03:53.340Z,3.00
2019-03-30T04:06:24.853Z,2.90
2019-03-30T04:08:57.105Z,2.80
2019-03-30T04:11:28.037Z,2.70
2019-03-30T04:14:03.973Z,2.80
2019-03-30T04:16:33.034Z,2.80
2019-03-30T04:19:01.801Z,2.80
2019-03-30T04:21:43.662Z,2.80
2019-03-30T04:24:00.980Z,2.90
2019-03-30T04:26:29.751Z,3.00
2019-03-30T04:28:58.549Z,3.00
2019-03-30T04:31:27.376Z,3.00
2019-03-30T04:33:56.110Z,2.90
2019-03-30T04:36:24.945Z,2.80
2019-03-30T04:38:53.686Z,2.90
2019-03-30T04:41:24.169Z,2.90
2019-03-30T04:43:52.933Z,2.90
2019-03-30T04:46:21.757Z,2.90
2019-03-30T04:48:52.993Z,2.80
2019-03-30T04:51:26.180Z,2.80
2019-03-30T04:53:56.590Z,2.70
2019-03-30T04:56:28.162Z,2.70
2019-03-30T04:58:56.958Z,2.70
2019-03-30T05:01:25.690Z,2.70
2019-03-30T05:03:54.526Z,2.80
2019-03-30T05:06:23.277Z,2.90
2019-03-30T05:08:52.202Z,2.90
2019-03-30T05:11:21.000Z,2.90
2019-03-30T05:13:49.807Z,2.90
2019-03-30T05:16:18.513Z,2.90
2019-03-30T05:18:47.283Z,3.00
2019-03-30T05:21:16.141Z,3.10
2019-03-30T05:23:44.892Z,3.00
2019-03-30T05:26:13.657Z,3.10
2019-03-30T05:28:42.484Z,3.10
2019-03-30T05:31:11.298Z,3.10
2019-03-30T05:33:40.030Z,3.00
2019-03-30T05:36:08.801Z,3.00
2019-03-30T05:38:37.613Z,2.90
2019-03-30T05:41:06.377Z,2.90
2019-03-30T05:43:37.221Z,3.00
2019-03-30T05:46:08.921Z,3.10
2019-03-30T05:48:37.657Z,3.20
2019-03-30T05:51:06.417Z,3.30
2019-03-30T05:53:36.285Z,3.30
2019-03-30T05:56:05.041Z,3.50
2019-03-30T05:58:33.781Z,3.50
2019-03-30T06:01:02.619Z,3.70
2019-03-30T06:03:31.353Z,3.70
2019-03-30T06:06:00.121Z,3.80
2019-03-30T06:08:28.857Z,3.90
2019-03-30T06:10:58.758Z,3.90
2019-03-30T06:13:27.489Z,4.00
2019-03-30T06:15:56.298Z,4.20
2019-03-30T06:18:25.091Z,4.30
2019-03-30T06:20:53.882Z,4.50
2019-03-30T06:23:22.636Z,4.60
2019-03-30T06:25:51.450Z,4.80
2019-03-30T06:28:20.220Z,4.90
2019-03-30T06:30:49.028Z,5.10
2019-03-30T06:33:17.841Z,5.30
2019-03-30T06:35:46.978Z,5.40
2019-03-30T06:38:23.109Z,5.50
2019-03-30T06:40:52.029Z,5.70
2019-03-30T06:43:22.376Z,5.90
2019-03-30T06:45:51.316Z,6.10
2019-03-30T06:48:21.184Z,6.20
2019-03-30T06:50:49.918Z,6.40
2019-03-30T06:53:18.796Z,6.50
2019-03-30T06:55:47.852Z,6.70
2019-03-30T06:58:16.640Z,6.80
2019-03-30T07:00:49.377Z,7.00
2019-03-30T07:03:38.803Z,7.10
2019-03-30T07:06:09.521Z,7.20
2019-03-30T07:08:45.121Z,7.40
2019-03-30T07:11:29.060Z,7.50
2019-03-30T07:14:00.548Z,7.60
2019-03-30T07:16:31.554Z,7.80
2019-03-30T07:19:03.618Z,7.90
2019-03-30T07:21:32.936Z,8.00
2019-03-30T07:24:02.126Z,8.10
2019-03-30T07:26:41.261Z,8.20
2019-03-30T07:29:11.503Z,8.30
2019-03-30T07:31:42.415Z,8.40
2019-03-30T07:34:11.340Z,8.60
2019-03-30T07:36:41.796Z,8.70
2019-03-30T07:39:25.797Z,8.80
2019-03-30T07:41:57.210Z,8.90
2019-03-30T07:44:29.322Z,9.00
2019-03-30T07:46:58.626Z,9.10
2019-03-30T07:49:30.163Z,9.20
2019-03-30T07:52:05.200Z,9.30
2019-03-30T07:54:35.177Z,9.40
2019-03-30T07:57:16.521Z,9.60
2019-03-30T07:59:40.677Z,9.60
2019-03-30T08:02:10.105Z,9.60
2019-03-30T08:04:40.282Z,9.70
2019-03-30T08:07:09.049Z,9.80
2019-03-30T08:09:40.768Z,9.90
2019-03-30T08:12:09.538Z,10.00
2019-03-30T08:14:40.060Z,10.30
2019-03-30T08:17:08.909Z,10.50
2019-03-30T08:19:37.677Z,10.60
2019-03-30T08:22:06.510Z,10.50
2019-03-30T08:24:35.360Z,10.60
2019-03-30T08:27:10.124Z,10.60
2019-03-30T08:29:34.676Z,10.60
2019-03-30T08:32:03.435Z,10.70
2019-03-30T08:34:35.081Z,10.80
2019-03-30T08:37:04.050Z,10.80
2019-03-30T08:39:34.008Z,10.90
2019-03-30T08:42:02.798Z,11.00
2019-03-30T08:44:31.565Z,11.30
2019-03-30T08:47:01.425Z,11.40
2019-03-30T08:49:30.193Z,11.60
2019-03-30T08:51:59.269Z,11.60
2019-03-30T08:54:28.009Z,11.60
2019-03-30T08:56:58.645Z,11.70
2019-03-30T08:59:27.483Z,11.90
2019-03-30T09:01:56.365Z,12.00
2019-03-30T09:04:25.124Z,12.20
2019-03-30T09:06:53.918Z,12.10
2019-03-30T09:09:22.716Z,12.20
2019-03-30T09:11:51.566Z,12.40
2019-03-30T09:14:20.313Z,12.50
2019-03-30T09:16:49.153Z,12.50
2019-03-30T09:19:17.967Z,12.60
2019-03-30T09:21:46.737Z,12.70
2019-03-30T09:24:15.664Z,12.70
2019-03-30T09:26:44.659Z,13.00
2019-03-30T09:29:13.389Z,13.10
2019-03-30T09:31:42.170Z,13.30
2019-03-30T09:34:10.905Z,13.20
2019-03-30T09:36:39.859Z,13.30
2019-03-30T09:39:09.867Z,13.50
2019-03-30T09:41:38.642Z,13.60
2019-03-30T09:44:07.404Z,13.70
2019-03-30T09:46:36.198Z,13.70
2019-03-30T09:49:05.050Z,13.70
2019-03-30T09:51:33.813Z,13.80
2019-03-30T09:54:02.693Z,14.00
2019-03-30T09:56:31.432Z,14.20
2019-03-30T09:59:00.270Z,14.40
2019-03-30T10:01:29.014Z,14.40
2019-03-30T10:03:57.777Z,14.50
2019-03-30T10:06:34.382Z,14.70
2019-03-30T10:08:56.933Z,14.60
2019-03-30T10:11:25.682Z,14.80
2019-03-30T10:13:54.525Z,14.90
2019-03-30T10:16:23.293Z,14.90
2019-03-30T10:18:52.186Z,14.90
2019-03-30T10:21:21.076Z,14.90
2019-03-30T10:23:49.814Z,15.00
2019-03-30T10:26:18.661Z,14.90
2019-03-30T10:28:47.397Z,14.90
2019-03-30T10:31:16.186Z,15.00
2019-03-30T10:33:44.928Z,15.10
2019-03-30T10:36:14.856Z,15.30
2019-03-30T10:38:43.537Z,15.40
2019-03-30T10:41:12.305Z,15.30
2019-03-30T10:43:41.043Z,15.50
2019-03-30T10:46:09.810Z,15.30
2019-03-30T10:48:38.621Z,15.20
2019-03-30T10:51:07.500Z,15.30
2019-03-30T10:53:36.361Z,15.40
2019-03-30T10:56:05.201Z,15.40
2019-03-30T10:58:34.041Z,15.70
2019-03-30T11:01:02.792Z,15.70
2019-03-30T11:03:31.632Z,15.70
2019-03-30T11:06:00.448Z,15.60
2019-03-30T11:08:29.217Z,15.60
2019-03-30T11:10:57.962Z,15.70
2019-03-30T11:13:26.788Z,15.70
2019-03-30T11:15:55.620Z,15.90
2019-03-30T11:18:24.394Z,15.90
2019-03-30T11:20:53.127Z,15.70
2019-03-30T11:23:21.897Z,15.80
2019-03-30T11:25:50.639Z,15.90
2019-03-30T11:28:19.409Z,16.00
2019-03-30T11:30:48.249Z,15.90
2019-03-30T11:33:17.050Z,16.10
2019-03-30T11:35:45.833Z,16.10
2019-03-30T11:38:14.578Z,16.10
2019-03-30T11:40:43.350Z,16.00
2019-03-30T11:43:12.166Z,15.80
2019-03-30T11:45:41.016Z,15.90
2019-03-30T11:48:09.767Z,15.90
2019-03-30T11:50:38.537Z,16.10
2019-03-30T11:53:07.289Z,16.20
2019-03-30T11:55:36.064Z,16.30
2019-03-30T11:58:04.813Z,16.50
2019-03-30T12:00:33.634Z,16.60
2019-03-30T12:03:02.374Z,16.60
2019-03-30T12:05:33.123Z,16.60
2019-03-30T12:08:02.134Z,16.80
2019-03-30T12:10:35.722Z,16.80
2019-03-30T12:13:06.014Z,16.90
2019-03-30T12:15:38.220Z,17.00
2019-03-30T12:18:08.354Z,17.00
2019-03-30T12:20:37.130Z,17.10
2019-03-30T12:23:06.022Z,17.00
2019-03-30T12:25:36.507Z,16.90
2019-03-30T12:28:05.365Z,17.10
2019-03-30T12:30:35.967Z,17.00
2019-03-30T12:33:05.053Z,16.90
2019-03-30T12:35:36.369Z,17.10
2019-03-30T12:38:05.749Z,17.10
2019-03-30T12:40:34.658Z,17.10
2019-03-30T12:43:03.540Z,17.20
2019-03-30T12:45:32.428Z,17.30
2019-03-30T12:48:01.424Z,17.30
2019-03-30T12:50:31.713Z,17.20
2019-03-30T12:53:02.510Z,17.20
2019-03-30T12:55:31.780Z,17.30
2019-03-30T12:58:00.613Z,17.10
2019-03-30T13:00:29.424Z,16.90
2019-03-30T13:03:17.517Z,17.10
2019-03-30T13:05:46.293Z,17.20
2019-03-30T13:08:15.037Z,17.20
2019-03-30T13:10:45.421Z,17.20
2019-03-30T13:13:14.374Z,17.30
2019-03-30T13:15:43.221Z,17.40
2019-03-30T13:18:11.969Z,17.50
2019-03-30T13:20:40.856Z,17.50
2019-03-30T13:23:09.590Z,17.50
2019-03-30T13:25:38.361Z,17.40
2019-03-30T13:28:07.169Z,17.40
2019-03-30T13:30:35.937Z,17.50
2019-03-30T13:33:04.745Z,17.50
2019-03-30T13:35:33.521Z,17.40
2019-03-30T13:38:02.445Z,17.50
2019-03-30T13:40:31.179Z,17.50
2019-03-30T13:42:59.944Z,17.40
2019-03-30T13:45:28.803Z,17.40
2019-03-30T13:47:57.581Z,17.60
2019-03-30T13:50:26.325Z,17.40
2019-03-30T13:52:55.157Z,17.30
2019-03-30T13:55:23.897Z,17.30
2019-03-30T13:57:52.736Z,17.20
2019-03-30T14:00:21.598Z,17.20
2019-03-30T14:02:50.381Z,17.30
2019-03-30T14:05:19.197Z,17.40
2019-03-30T14:07:47.961Z,17.50
2019-03-30T14:10:16.705Z,17.50
2019-03-30T14:12:45.485Z,17.40
2019-03-30T14:15:14.312Z,17.40
2019-03-30T14:17:43.080Z,17.30
2019-03-30T14:20:12.023Z,17.30
2019-03-30T14:22:40.784Z,17.30
2019-03-30T14:25:10.091Z,17.20
2019-03-30T14:27:38.808Z,17.20
2019-03-30T14:30:10.745Z,17.10
2019-03-30T14:32:39.541Z,17.20
2019-03-30T14:35:08.522Z,17.30
2019-03-30T14:37:37.361Z,17.30
2019-03-30T14:40:08.706Z,17.20
2019-03-30T14:42:41.736Z,17.20
2019-03-30T14:45:13.552Z,17.10
2019-03-30T14:47:43.241Z,16.90
2019-03-30T14:50:15.571Z,16.90
2019-03-30T14:52:44.745Z,16.90
2019-03-30T14:55:15.841Z,16.90
2019-03-30T14:57:47.768Z,16.80
2019-03-30T15:00:16.327Z,16.80
2019-03-30T15:02:45.145Z,16.90
2019-03-30T15:05:16.012Z,17.00
2019-03-30T15:07:46.594Z,17.00
2019-03-30T15:10:15.697Z,17.00
2019-03-30T15:12:44.463Z,17.00
2019-03-30T15:15:13.872Z,17.00
2019-03-30T15:17:42.643Z,17.00
2019-03-30T15:20:13.219Z,17.00
2019-03-30T15:22:42.210Z,17.00
2019-03-30T15:25:11.393Z,16.90
2019-03-30T15:27:40.236Z,16.90
2019-03-30T15:30:09.411Z,16.70
2019-03-30T15:32:38.177Z,16.70
2019-03-30T15:35:07.321Z,16.60
2019-03-30T15:37:36.093Z,16.60
2019-03-30T15:40:07.104Z,16.50
2019-03-30T15:42:35.927Z,16.50
2019-03-30T15:45:07.878Z,16.70
2019-03-30T15:47:36.649Z,16.70
2019-03-30T15:50:06.993Z,16.80
2019-03-30T15:52:35.785Z,16.70
2019-03-30T15:55:07.563Z,16.70
2019-03-30T15:57:36.840Z,16.90
2019-03-30T16:00:10.657Z,17.00
2019-03-30T16:02:39.605Z,17.00
2019-03-30T16:05:08.634Z,16.70
2019-03-30T16:07:37.445Z,16.50
2019-03-30T16:10:06.821Z,16.30
2019-03-30T16:12:35.573Z,16.30
2019-03-30T16:15:08.186Z,16.20
2019-03-30T16:17:36.997Z,16.20
2019-03-30T16:20:07.429Z,16.20
2019-03-30T16:22:36.330Z,16.20
2019-03-30T16:25:07.599Z,16.20
2019-03-30T16:27:39.155Z,16.20
2019-03-30T16:30:08.119Z,16.20
2019-03-30T16:32:36.810Z,16.10
2019-03-30T16:35:06.379Z,16.00
2019-03-30T16:37:35.160Z,15.90
2019-03-30T16:40:05.177Z,15.90
2019-03-30T16:42:34.080Z,15.90
2019-03-30T16:45:02.905Z,15.90
2019-03-30T16:47:31.713Z,15.80
2019-03-30T16:50:00.483Z,15.70
2019-03-30T16:52:29.289Z,15.70
2019-03-30T16:54:58.126Z,15.50
2019-03-30T16:57:26.965Z,15.50
2019-03-30T16:59:55.728Z,15.50
2019-03-30T17:02:24.474Z,15.40
2019-03-30T17:04:53.253Z,15.20
2019-03-30T17:07:21.998Z,15.20
2019-03-30T17:09:50.837Z,15.10
2019-03-30T17:12:19.725Z,15.00
2019-03-30T17:14:48.583Z,15.00
2019-03-30T17:17:17.421Z,15.00
2019-03-30T17:19:46.229Z,14.90
2019-03-30T17:22:14.988Z,14.90
2019-03-30T17:24:43.733Z,14.80
2019-03-30T17:27:12.561Z,14.60
2019-03-30T17:29:41.405Z,14.50
2019-03-30T17:32:10.190Z,14.40
2019-03-30T17:34:38.927Z,14.20
2019-03-30T17:37:07.764Z,14.10
2019-03-30T17:39:36.510Z,13.90
2019-03-30T17:42:05.389Z,13.80
2019-03-30T17:44:34.225Z,13.60
2019-03-30T17:47:03.056Z,13.40
2019-03-30T17:49:31.813Z,13.30
2019-03-30T17:52:00.578Z,13.10
2019-03-30T17:54:29.323Z,13.00
2019-03-30T17:56:58.104Z,12.90
2019-03-30T17:59:26.841Z,12.80
2019-03-30T18:01:55.686Z,12.70
2019-03-30T18:04:24.429Z,12.50
2019-03-30T18:06:53.196Z,12.40
2019-03-30T18:09:22.033Z,12.20
2019-03-30T18:11:50.806Z,12.10
2019-03-30T18:14:19.609Z,12.00
2019-03-30T18:16:48.415Z,11.90
2019-03-30T18:19:17.222Z,11.80
2019-03-30T18:21:45.994Z,11.70
2019-03-30T18:24:14.916Z,11.70
2019-03-30T18:26:43.705Z,11.60
2019-03-30T18:29:12.446Z,11.50
2019-03-30T18:31:41.816Z,11.40
2019-03-30T18:34:10.609Z,11.30
2019-03-30T18:36:40.878Z,11.20
2019-03-30T18:39:10.316Z,11.20
2019-03-30T18:41:39.101Z,11.20
2019-03-30T18:44:07.844Z,11.10
2019-03-30T18:46:36.615Z,11.00
2019-03-30T18:49:05.392Z,10.90
2019-03-30T18:51:34.452Z,10.90
2019-03-30T18:54:03.497Z,10.80
2019-03-30T18:56:32.304Z,10.80
2019-03-30T18:59:01.200Z,10.70
2019-03-30T19:01:30.041Z,10.60
2019-03-30T19:03:58.889Z,10.50
2019-03-30T19:06:27.672Z,10.50
2019-03-30T19:08:56.560Z,10.40
2019-03-30T19:11:25.289Z,10.40
2019-03-30T19:13:54.117Z,10.30
2019-03-30T19:16:22.857Z,10.20
2019-03-30T19:18:51.641Z,10.10
2019-03-30T19:21:20.480Z,10.10
2019-03-30T19:23:49.245Z,10.00
2019-03-30T19:26:18.135Z,9.90
2019-03-30T19:28:56.143Z,9.90
2019-03-30T19:31:17.682Z,9.90
2019-03-30T19:33:46.548Z,9.70
2019-03-30T19:36:15.431Z,9.60
2019-03-30T19:38:44.420Z,9.60
2019-03-30T19:41:13.245Z,9.60
2019-03-30T19:43:42.180Z,9.60
2019-03-30T19:46:11.069Z,9.60
2019-03-30T19:48:40.178Z,9.50
2019-03-30T19:51:08.924Z,9.40
2019-03-30T19:53:37.764Z,9.30
2019-03-30T19:56:06.551Z,9.40
2019-03-30T19:58:35.610Z,9.30
2019-03-30T20:01:04.353Z,9.30
2019-03-30T20:03:33.147Z,9.30
2019-03-30T20:06:01.897Z,9.30
2019-03-30T20:08:30.703Z,9.30
2019-03-30T20:10:59.438Z,9.20
2019-03-30T20:13:28.213Z,9.00
2019-03-30T20:15:57.030Z,9.00
2019-03-30T20:18:25.829Z,8.90
2019-03-30T20:20:54.578Z,8.80
2019-03-30T20:23:23.455Z,8.80
2019-03-30T20:25:52.190Z,8.80
2019-03-30T20:28:20.953Z,8.60
2019-03-30T20:30:49.782Z,8.60
2019-03-30T20:33:18.709Z,8.60
2019-03-30T20:35:47.522Z,8.50
2019-03-30T20:38:16.294Z,8.50
2019-03-30T20:40:45.029Z,8.40
2019-03-30T20:43:13.857Z,8.40
2019-03-30T20:45:42.689Z,8.40
2019-03-30T20:48:11.497Z,8.40
2019-03-30T20:50:40.321Z,8.40
2019-03-30T20:53:09.068Z,8.40
2019-03-30T20:55:37.832Z,8.30
2019-03-30T20:58:06.582Z,8.30
2019-03-30T21:00:35.373Z,8.20
2019-03-30T21:03:04.110Z,8.20
2019-03-30T21:05:32.881Z,8.20
2019-03-30T21:08:01.694Z,8.30
2019-03-30T21:10:30.458Z,8.30
2019-03-30T21:12:59.200Z,8.10
2019-03-30T21:15:27.964Z,7.90
2019-03-30T21:17:56.705Z,7.80
2019-03-30T21:20:25.569Z,7.70
2019-03-30T21:22:54.316Z,7.70
2019-03-30T21:25:23.146Z,7.80
2019-03-30T21:27:51.889Z,7.80
2019-03-30T21:30:20.722Z,7.70
2019-03-30T21:32:49.458Z,7.70
2019-03-30T21:35:18.226Z,7.60
2019-03-30T21:37:46.962Z,7.60
2019-03-30T21:40:15.727Z,7.60
2019-03-30T21:42:44.461Z,7.50
2019-03-30T21:45:13.245Z,7.50
2019-03-30T21:47:41.995Z,7.50
2019-03-30T21:50:10.958Z,7.50
2019-03-30T21:52:39.706Z,7.40
2019-03-30T21:55:08.669Z,7.30
2019-03-30T21:57:37.455Z,7.30
2019-03-30T22:00:10.530Z,7.30
2019-03-30T22:02:38.175Z,7.20
2019-03-30T22:05:07.134Z,7.30
2019-03-30T22:07:36.888Z,7.30
2019-03-30T22:10:07.907Z,7.20
2019-03-30T22:12:39.513Z,7.20
2019-03-30T22:15:08.488Z,7.10
2019-03-30T22:17:37.229Z,7.00
2019-03-30T22:20:07.405Z,7.00
2019-03-30T22:22:36.211Z,7.00
2019-03-30T22:25:06.372Z,7.00
2019-03-30T22:27:35.106Z,7.00
2019-03-30T22:30:05.769Z,7.00
2019-03-30T22:32:34.585Z,7.00
2019-03-30T22:35:03.543Z,6.90
2019-03-30T22:37:32.282Z,6.80
2019-03-30T22:40:01.049Z,6.80
2019-03-30T22:42:29.866Z,6.90
2019-03-30T22:44:58.689Z,6.90
2019-03-30T22:47:27.433Z,6.80
2019-03-30T22:49:56.202Z,6.70
2019-03-30T22:52:24.938Z,6.60
2019-03-30T22:54:53.705Z,6.60
2019-03-30T22:57:22.478Z,6.60
2019-03-30T22:59:51.317Z,6.60
2019-03-30T23:02:20.077Z,6.60
2019-03-30T23:04:48.849Z,6.60
2019-03-30T23:07:17.629Z,6.60
2019-03-30T23:09:46.366Z,6.60
2019-03-30T23:12:15.129Z,6.60
2019-03-30T23:14:43.897Z,6.70
2019-03-30T23:17:12.734Z,6.60
2019-03-30T23:19:41.471Z,6.50
2019-03-30T23:22:10.338Z,6.40
2019-03-30T23:24:39.157Z,6.30
2019-03-30T23:27:07.942Z,6.20
2019-03-30T23:29:36.681Z,6.20
2019-03-30T23:32:05.557Z,6.30
2019-03-30T23:34:34.301Z,6.20
2019-03-30T23:37:03.134Z,6.20
2019-03-30T23:39:31.869Z,6.20
2019-03-30T23:42:00.705Z,6.10
2019-03-30T23:44:29.445Z,6.20
2019-03-30T23:46:58.209Z,6.20
2019-03-30T23:49:26.944Z,6.20
2019-03-30T23:51:55.709Z,6.20
2019-03-30T23:54:24.545Z,6.20
2019-03-30T23:56:53.315Z,6.20
2019-03-30T23:59:22.136Z,6.00
